Decoded Metar for LFMH (ST.-ETIENNE in FRANCE) (IATA:EBU) | Meteo·Mobile Aviation Weather
aviador You're here:

LFMH Decoded Metar

ST.-ETIENNE in FRANCE
Report Time2020-02-23 09:00:00
UTC Time2020-02-23 09:35:09
Flight Rules vfr VFR
Wind170° at 09 kt
W.Decomp.*RWY 18: 8.8 kt HW 1.7 kt LCW
Visibility9999 m
Phenomena:N/A
Clouds:N/A
Expected CloudBase > 3,600 ft AGL from Temp-Dew spread
CeilingNone
Temp10°C (ISA -2)
Dew Point01°C (54% RH)
AAT4.9°C
QNH1031 hPa
Density Alt525 ft
Elevation1,319 ft
Report Wrong Elevation
Raw Report
LFMH 230900Z AUTO 17009KT CAVOK 10/01 Q1031 NOSIG=

Extra information for LFMH:More info

Metar Taf Metar & Taf Last 4 Metars F.Rules Stats Wind Profile Meteogram Temp Stats Airport Information Weather charts Add Link Nearby VenuesMetar ALERT Operation Metar Decoded Social comments